createdAt,value
2023-03-11T00:00:44.886Z,93204.47
2023-03-11T00:03:16.211Z,93215.25
2023-03-11T00:05:44.836Z,93209.41
2023-03-11T00:08:18.025Z,93218.47
2023-03-11T00:10:46.811Z,93211.00
2023-03-11T00:13:15.905Z,93184.41
2023-03-11T00:15:47.072Z,93176.16
2023-03-11T00:18:14.662Z,93163.41
2023-03-11T00:20:44.066Z,93178.00
2023-03-11T00:23:11.502Z,93187.91
2023-03-11T00:25:39.294Z,93175.59
2023-03-11T00:28:11.178Z,93179.44
2023-03-11T00:30:39.462Z,93171.41
2023-03-11T00:33:07.937Z,93161.88
2023-03-11T00:35:35.969Z,93133.53
2023-03-11T00:38:06.292Z,93173.22
2023-03-11T00:40:36.215Z,93166.59
2023-03-11T00:43:04.069Z,93161.88
2023-03-11T00:45:31.948Z,93190.69
2023-03-11T00:47:58.843Z,93166.66
2023-03-11T00:50:32.336Z,93142.03
2023-03-11T00:53:00.001Z,93150.09
2023-03-11T00:55:30.743Z,93114.88
2023-03-11T00:58:01.729Z,93130.91
2023-03-11T01:00:35.665Z,93114.41
2023-03-11T01:03:03.618Z,93120.72
2023-03-11T01:05:32.641Z,93127.19
2023-03-11T01:08:00.683Z,93139.13
2023-03-11T01:10:29.721Z,93131.84
2023-03-11T01:12:56.759Z,93134.47
2023-03-11T01:15:27.842Z,93125.69
2023-03-11T01:17:54.784Z,93084.69
2023-03-11T01:20:21.926Z,93099.56
2023-03-11T01:22:49.263Z,93093.44
2023-03-11T01:25:18.278Z,93083.00
2023-03-11T01:27:45.427Z,93081.97
2023-03-11T01:30:16.679Z,93072.91
2023-03-11T01:32:44.084Z,93050.16
2023-03-11T01:35:15.667Z,93054.69
2023-03-11T01:37:42.839Z,93049.06
2023-03-11T01:40:17.308Z,93049.66
2023-03-11T01:42:44.679Z,93054.19
2023-03-11T01:45:34.113Z,93060.53
2023-03-11T01:48:01.618Z,93006.63
2023-03-11T01:50:36.032Z,93040.22
2023-03-11T01:53:05.870Z,93054.38
2023-03-11T01:55:34.947Z,93067.97
2023-03-11T01:58:07.564Z,92973.38
2023-03-11T02:00:37.554Z,93073.84
2023-03-11T02:03:11.744Z,93082.78
2023-03-11T02:05:40.131Z,93076.66
2023-03-11T02:08:09.402Z,93087.81
2023-03-11T02:10:40.823Z,93081.19
2023-03-11T02:13:08.072Z,93090.53
2023-03-11T02:15:35.364Z,93104.34
2023-03-11T02:18:05.322Z,93103.63
2023-03-11T02:20:54.582Z,93103.81
2023-03-11T02:23:28.199Z,93095.34
2023-03-11T02:26:20.074Z,93095.09
2023-03-11T02:28:49.201Z,93111.53
2023-03-11T02:31:17.035Z,93114.44
2023-03-11T02:33:46.968Z,93079.53
2023-03-11T02:36:38.763Z,93111.16
2023-03-11T02:39:09.970Z,93095.19
2023-03-11T02:41:46.157Z,93088.28
2023-03-11T02:44:16.382Z,93098.88
2023-03-11T02:46:45.193Z,93098.78
2023-03-11T02:49:14.826Z,93101.94
2023-03-11T02:51:41.977Z,93112.81
2023-03-11T02:54:09.016Z,93109.28
2023-03-11T02:56:37.017Z,93095.91
2023-03-11T02:59:03.946Z,93123.59
2023-03-11T03:01:31.189Z,93112.31
2023-03-11T03:03:59.108Z,93102.63
2023-03-11T03:06:28.586Z,93113.59
2023-03-11T03:08:56.746Z,93119.91
2023-03-11T03:11:23.648Z,93104.91
2023-03-11T03:13:50.550Z,93096.69
2023-03-11T03:16:18.108Z,93111.69
2023-03-11T03:18:45.200Z,93109.47
2023-03-11T03:21:12.240Z,93109.84
2023-03-11T03:23:39.537Z,93114.78
2023-03-11T03:26:06.799Z,93124.38
2023-03-11T03:28:37.180Z,93117.47
2023-03-11T03:31:08.905Z,93118.41
2023-03-11T03:33:38.297Z,93125.03
2023-03-11T03:36:09.852Z,93133.81
2023-03-11T03:38:43.172Z,93108.84
2023-03-11T03:41:13.173Z,93121.09
2023-03-11T03:43:41.285Z,93107.06
2023-03-11T03:46:10.111Z,93063.09
2023-03-11T03:48:43.793Z,93114.41
2023-03-11T03:51:13.690Z,93103.22
2023-03-11T03:53:56.989Z,93113.06
2023-03-11T03:56:26.208Z,93112.53
2023-03-11T03:58:53.763Z,93111.63
2023-03-11T04:01:22.513Z,93111.78
2023-03-11T04:03:49.518Z,93103.50
2023-03-11T04:06:21.590Z,93100.59
2023-03-11T04:08:54.674Z,93101.88
2023-03-11T04:11:26.538Z,93089.25
2023-03-11T04:13:54.865Z,93088.69
2023-03-11T04:16:24.116Z,92862.84
2023-03-11T04:18:54.982Z,93097.47
2023-03-11T04:21:22.330Z,93093.22
2023-03-11T04:23:49.873Z,93108.63
2023-03-11T04:26:22.428Z,93107.41
2023-03-11T04:28:49.597Z,93118.97
2023-03-11T04:31:17.398Z,93112.56
2023-03-11T04:33:44.341Z,93106.44
2023-03-11T04:36:12.975Z,93122.28
2023-03-11T04:38:40.131Z,93112.69
2023-03-11T04:41:09.431Z,93117.44
2023-03-11T04:43:39.140Z,93121.69
2023-03-11T04:46:06.472Z,93117.66
2023-03-11T04:48:34.263Z,93103.00
2023-03-11T04:51:01.358Z,93095.38
2023-03-11T04:53:29.521Z,93112.81
2023-03-11T04:55:56.568Z,93092.22
2023-03-11T04:58:23.620Z,93109.94
2023-03-11T05:00:50.588Z,93123.00
2023-03-11T05:03:17.735Z,93118.94
2023-03-11T05:05:45.433Z,93131.03
2023-03-11T05:08:12.762Z,93123.03
2023-03-11T05:10:42.743Z,93124.03
2023-03-11T05:13:10.453Z,93135.19
2023-03-11T05:15:39.485Z,93144.41
2023-03-11T05:18:07.732Z,93139.72
2023-03-11T05:20:37.395Z,93154.97
2023-03-11T05:23:05.309Z,93151.94
2023-03-11T05:25:35.660Z,93155.69
2023-03-11T05:28:04.096Z,93134.31
2023-03-11T05:30:32.938Z,93171.94
2023-03-11T05:33:00.090Z,93176.25
2023-03-11T05:35:28.025Z,93169.13
2023-03-11T05:37:56.019Z,93174.88
2023-03-11T05:40:25.538Z,93156.78
2023-03-11T05:42:52.744Z,93178.97
2023-03-11T05:45:19.777Z,93178.47
2023-03-11T05:47:49.339Z,93168.28
2023-03-11T05:50:17.828Z,93185.03
2023-03-11T05:52:46.481Z,93183.94
2023-03-11T05:55:13.510Z,93200.59
2023-03-11T05:57:42.816Z,93197.34
2023-03-11T06:00:13.510Z,93214.19
2023-03-11T06:02:42.102Z,93207.81
2023-03-11T06:05:13.884Z,93209.91
2023-03-11T06:07:43.341Z,93217.31
2023-03-11T06:10:11.251Z,93227.50
2023-03-11T06:12:39.642Z,93223.53
2023-03-11T06:15:36.983Z,93230.16
2023-03-11T06:18:04.968Z,93221.00
2023-03-11T06:20:33.516Z,93232.50
2023-03-11T06:23:00.528Z,93212.09
2023-03-11T06:25:27.835Z,93232.38
2023-03-11T06:27:55.143Z,93234.97
2023-03-11T06:30:24.482Z,93217.84
2023-03-11T06:32:58.877Z,93222.78
2023-03-11T06:35:25.977Z,93230.13
2023-03-11T06:37:52.867Z,93229.38
2023-03-11T06:40:20.051Z,93236.22
2023-03-11T06:42:50.086Z,93239.59
2023-03-11T06:45:20.601Z,93229.72
2023-03-11T06:47:49.026Z,93227.91
2023-03-11T06:50:16.514Z,93235.16
2023-03-11T06:52:43.747Z,93225.75
2023-03-11T06:55:10.759Z,93216.50
2023-03-11T06:57:37.880Z,93244.03
2023-03-11T07:00:12.308Z,93236.66
2023-03-11T07:02:41.424Z,93222.22
2023-03-11T07:05:09.530Z,93239.50
2023-03-11T07:07:36.482Z,93226.44
2023-03-11T07:10:04.821Z,93222.28
2023-03-11T07:12:31.820Z,93241.09
2023-03-11T07:14:59.678Z,93246.16
2023-03-11T07:17:28.265Z,93234.38
2023-03-11T07:19:55.303Z,93237.34
2023-03-11T07:22:22.204Z,93208.22
2023-03-11T07:24:49.375Z,93241.06
2023-03-11T07:27:16.509Z,93134.78
2023-03-11T07:29:43.735Z,93213.38
2023-03-11T07:32:10.759Z,93218.28
2023-03-11T07:34:37.715Z,93207.38
2023-03-11T07:37:04.840Z,93213.72
2023-03-11T07:39:31.729Z,93208.19
2023-03-11T07:41:59.011Z,93204.72
2023-03-11T07:44:34.429Z,93195.53
2023-03-11T07:47:06.131Z,93186.44
2023-03-11T07:49:34.376Z,93191.19
2023-03-11T07:52:01.377Z,93171.41
2023-03-11T07:54:28.689Z,93199.88
2023-03-11T07:56:55.672Z,93172.38
2023-03-11T07:59:22.685Z,93167.41
2023-03-11T08:01:50.676Z,93174.50
2023-03-11T08:04:17.853Z,93159.84
2023-03-11T08:06:47.032Z,93168.13
2023-03-11T08:09:14.294Z,93168.47
2023-03-11T08:11:41.327Z,93155.91
2023-03-11T08:14:08.389Z,93143.75
2023-03-11T08:16:35.342Z,93135.00
2023-03-11T08:19:02.384Z,93142.75
2023-03-11T08:21:32.162Z,93136.13
2023-03-11T08:24:02.093Z,93135.16
2023-03-11T08:26:30.353Z,93115.53
2023-03-11T08:28:58.257Z,93132.38
2023-03-11T08:31:29.479Z,93109.53
2023-03-11T08:34:03.502Z,93108.81
2023-03-11T08:36:31.479Z,93114.34
2023-03-11T08:38:59.323Z,93106.28
2023-03-11T08:41:27.585Z,93098.88
2023-03-11T08:43:54.523Z,93109.06
2023-03-11T08:46:25.392Z,93107.84
2023-03-11T08:48:53.894Z,93075.50
2023-03-11T08:51:22.784Z,93099.97
2023-03-11T08:53:50.427Z,93092.06
2023-03-11T08:56:17.940Z,93090.59
2023-03-11T08:58:45.675Z,93086.03
2023-03-11T09:01:13.695Z,93073.72
2023-03-11T09:03:40.885Z,93082.56
2023-03-11T09:06:13.767Z,93059.84
2023-03-11T09:08:41.862Z,93063.00
2023-03-11T09:11:09.673Z,93077.00
2023-03-11T09:13:36.699Z,93069.84
2023-03-11T09:16:05.993Z,93063.53
2023-03-11T09:18:32.885Z,93080.97
2023-03-11T09:21:00.833Z,93067.56
2023-03-11T09:23:27.731Z,93063.31
2023-03-11T09:25:54.688Z,93062.47
2023-03-11T09:28:21.735Z,93075.59
2023-03-11T09:30:48.672Z,93069.13
2023-03-11T09:33:15.716Z,93060.75
2023-03-11T09:35:42.620Z,93066.72
2023-03-11T09:38:09.532Z,93057.50
2023-03-11T09:40:54.617Z,93063.03
2023-03-11T09:43:35.738Z,93048.91
2023-03-11T09:46:24.388Z,93064.88
2023-03-11T09:49:19.301Z,93058.25
2023-03-11T09:52:14.071Z,93059.59
2023-03-11T09:54:45.446Z,93061.56
2023-03-11T09:57:21.375Z,93050.81
2023-03-11T09:59:48.905Z,93046.09
2023-03-11T10:02:19.543Z,93058.09
2023-03-11T10:05:11.910Z,93061.88
2023-03-11T10:07:47.304Z,93038.28
2023-03-11T10:10:15.197Z,93061.72
2023-03-11T10:12:45.516Z,93066.06
2023-03-11T10:15:39.396Z,93067.09
2023-03-11T10:18:25.333Z,93072.56
2023-03-11T10:20:59.772Z,93070.91
2023-03-11T10:23:51.496Z,93079.84
2023-03-11T10:26:23.283Z,93072.25
2023-03-11T10:28:59.629Z,93074.53
2023-03-11T10:31:48.717Z,93076.50
2023-03-11T10:34:54.852Z,93079.41
2023-03-11T10:37:48.885Z,93063.56
2023-03-11T10:40:35.388Z,93069.06
2023-03-11T10:43:16.433Z,93057.31
2023-03-11T10:45:46.379Z,93061.53
2023-03-11T10:48:16.711Z,93078.19
2023-03-11T10:50:46.899Z,93080.13
2023-03-11T10:53:17.270Z,93101.53
2023-03-11T10:55:53.437Z,93083.53
2023-03-11T10:58:29.523Z,93090.50
2023-03-11T11:01:17.603Z,93094.59
2023-03-11T11:03:49.214Z,93095.22
2023-03-11T11:06:27.311Z,93081.44
2023-03-11T11:09:12.706Z,93100.84
2023-03-11T11:11:39.889Z,93005.13
2023-03-11T11:14:07.489Z,93086.63
2023-03-11T11:16:35.336Z,93084.06
2023-03-11T11:19:03.997Z,93078.28
2023-03-11T11:21:36.991Z,93065.59
2023-03-11T11:24:27.310Z,93068.50
2023-03-11T11:27:26.577Z,93061.88
2023-03-11T11:30:10.537Z,93055.69
2023-03-11T11:32:38.014Z,93065.00
2023-03-11T11:35:17.193Z,93047.31
2023-03-11T11:37:46.564Z,93042.81
2023-03-11T11:40:16.856Z,93040.47
2023-03-11T11:42:53.010Z,93023.97
2023-03-11T11:45:32.776Z,93026.44
2023-03-11T11:48:04.695Z,93035.94
2023-03-11T11:50:42.107Z,92993.41
2023-03-11T11:53:31.084Z,93003.03
2023-03-11T11:55:58.386Z,92994.16
2023-03-11T11:58:25.469Z,92999.06
2023-03-11T12:01:13.519Z,92980.88
2023-03-11T12:04:05.304Z,92987.19
2023-03-11T12:06:38.360Z,92999.66
2023-03-11T12:09:24.371Z,92981.88
2023-03-11T12:12:03.219Z,92990.09
2023-03-11T12:15:14.709Z,93001.28
2023-03-11T12:17:45.068Z,92983.16
2023-03-11T12:20:14.671Z,92984.72
2023-03-11T12:23:12.733Z,92992.41
2023-03-11T12:25:42.242Z,92987.09
2023-03-11T12:28:16.036Z,93002.53
2023-03-11T12:30:53.312Z,92974.69
2023-03-11T12:33:51.105Z,92983.38
2023-03-11T12:36:23.989Z,92980.91
2023-03-11T12:38:53.893Z,92999.91
2023-03-11T12:41:31.919Z,93000.72
2023-03-11T12:44:31.697Z,92993.63
2023-03-11T12:46:58.906Z,92995.50
2023-03-11T12:49:27.915Z,92996.88
2023-03-11T12:52:16.201Z,93009.31
2023-03-11T12:55:10.532Z,92999.91
2023-03-11T12:57:51.476Z,92985.84
2023-03-11T13:00:38.970Z,93013.97
2023-03-11T13:03:27.167Z,93018.44
2023-03-11T13:06:14.322Z,93021.22
2023-03-11T13:08:52.382Z,93034.03
2023-03-11T13:11:43.732Z,93034.41
2023-03-11T13:14:40.355Z,93055.69
2023-03-11T13:17:32.489Z,93054.63
2023-03-11T13:19:59.934Z,93055.84
2023-03-11T13:22:57.388Z,93085.97
2023-03-11T13:25:38.865Z,93083.03
2023-03-11T13:28:30.141Z,93102.78
2023-03-11T13:31:34.740Z,93108.94
2023-03-11T13:34:15.087Z,93105.53
2023-03-11T13:37:06.874Z,93137.75
2023-03-11T13:39:44.770Z,93121.44
2023-03-11T13:42:37.591Z,93136.44
2023-03-11T13:45:12.830Z,93086.19
2023-03-11T13:47:45.879Z,93152.78
2023-03-11T13:50:25.983Z,93147.44
2023-03-11T13:52:54.979Z,93168.03
2023-03-11T13:55:28.403Z,93176.75
2023-03-11T13:57:57.440Z,93159.72
2023-03-11T14:00:28.598Z,93146.94
2023-03-11T14:03:12.060Z,93148.69
2023-03-11T14:05:46.254Z,93140.09
2023-03-11T14:08:27.467Z,93140.66
2023-03-11T14:10:59.865Z,93144.09
2023-03-11T14:13:32.961Z,93140.28
2023-03-11T14:16:00.401Z,93145.44
2023-03-11T14:18:34.281Z,93127.13
2023-03-11T14:21:02.702Z,93137.59
2023-03-11T14:23:39.847Z,93161.16
2023-03-11T14:26:13.681Z,93158.97
2023-03-11T14:28:45.094Z,93147.75
2023-03-11T14:31:31.243Z,93144.19
2023-03-11T14:34:14.304Z,93164.56
2023-03-11T14:36:51.035Z,93133.25
2023-03-11T14:39:38.235Z,93158.13
2023-03-11T14:42:08.452Z,93164.75
2023-03-11T14:44:40.983Z,93150.06
2023-03-11T14:47:17.189Z,93156.97
2023-03-11T14:49:44.657Z,93173.31
2023-03-11T14:52:37.736Z,93181.28
2023-03-11T14:55:12.203Z,93184.94
2023-03-11T14:58:01.915Z,93175.25
2023-03-11T15:00:34.222Z,93191.28
2023-03-11T15:03:25.282Z,93212.47
2023-03-11T15:05:59.718Z,93213.34
2023-03-11T15:08:31.039Z,93223.50
2023-03-11T15:11:03.220Z,93004.56
2023-03-11T15:13:31.008Z,93241.03
2023-03-11T15:16:00.322Z,93241.34
2023-03-11T15:18:37.342Z,93251.53
2023-03-11T15:21:13.904Z,93243.66
2023-03-11T15:23:46.436Z,93231.25
2023-03-11T15:26:26.014Z,93266.50
2023-03-11T15:29:01.821Z,93240.28
2023-03-11T15:31:32.191Z,93269.97
2023-03-11T15:34:12.213Z,93263.72
2023-03-11T15:36:45.655Z,93290.09
2023-03-11T15:39:14.918Z,93294.22
2023-03-11T15:41:42.785Z,93293.06
2023-03-11T15:44:24.388Z,93288.28
2023-03-11T15:46:51.811Z,93318.59
2023-03-11T15:49:19.123Z,93317.16
2023-03-11T15:51:46.755Z,93325.81
2023-03-11T15:54:13.784Z,93326.69
2023-03-11T15:56:41.220Z,93344.47
2023-03-11T15:59:14.101Z,93343.91
2023-03-11T16:01:42.518Z,93362.66
2023-03-11T16:04:15.255Z,93380.66
2023-03-11T16:06:43.108Z,93368.06
2023-03-11T16:09:13.104Z,93386.75
2023-03-11T16:11:41.249Z,93389.00
2023-03-11T16:14:20.318Z,93383.53
2023-03-11T16:16:47.626Z,93401.44
2023-03-11T16:19:14.485Z,93399.91
2023-03-11T16:21:47.051Z,93412.75
2023-03-11T16:24:20.648Z,93411.44
2023-03-11T16:26:48.269Z,93416.22
2023-03-11T16:29:19.681Z,93436.16
2023-03-11T16:31:47.292Z,93437.28
2023-03-11T16:34:14.158Z,93456.41
2023-03-11T16:36:41.209Z,93428.56
2023-03-11T16:39:08.082Z,93470.84
2023-03-11T16:41:43.765Z,93468.97
2023-03-11T16:44:11.285Z,93478.78
2023-03-11T16:46:38.463Z,93493.41
2023-03-11T16:49:06.045Z,93503.97
2023-03-11T16:51:33.440Z,93505.28
2023-03-11T16:54:00.650Z,93517.44
2023-03-11T16:56:27.551Z,93538.66
2023-03-11T16:58:54.860Z,93534.59
2023-03-11T17:01:22.343Z,93548.38
2023-03-11T17:03:50.887Z,93538.19
2023-03-11T17:06:18.882Z,93563.44
2023-03-11T17:08:49.135Z,93558.53
2023-03-11T17:11:21.219Z,93561.94
2023-03-11T17:13:48.792Z,93566.63
2023-03-11T17:16:15.937Z,93571.31
2023-03-11T17:18:43.062Z,93598.94
2023-03-11T17:21:12.770Z,93575.19
2023-03-11T17:23:40.137Z,93632.53
2023-03-11T17:26:12.750Z,93629.88
2023-03-11T17:28:40.637Z,93638.94
2023-03-11T17:31:17.702Z,93643.91
2023-03-11T17:33:45.811Z,93641.47
2023-03-11T17:36:16.032Z,93649.63
2023-03-11T17:38:44.362Z,93666.91
2023-03-11T17:41:14.837Z,93669.56
2023-03-11T17:43:42.617Z,93666.88
2023-03-11T17:46:12.391Z,93681.50
2023-03-11T17:48:39.351Z,93683.75
2023-03-11T17:51:12.251Z,93686.88
2023-03-11T17:53:40.885Z,93703.81
2023-03-11T17:56:08.340Z,93711.50
2023-03-11T17:58:35.644Z,93711.13
2023-03-11T18:01:04.974Z,93700.44
2023-03-11T18:03:31.964Z,93705.72
2023-03-11T18:06:01.916Z,93677.50
2023-03-11T18:08:29.637Z,93716.09
2023-03-11T18:11:02.138Z,93729.22
2023-03-11T18:13:29.754Z,93746.06
2023-03-11T18:16:08.869Z,93754.75
2023-03-11T18:18:36.480Z,93751.31
2023-03-11T18:21:05.379Z,93737.75
2023-03-11T18:23:33.229Z,93751.19
2023-03-11T18:26:01.910Z,93757.56
2023-03-11T18:28:29.325Z,93758.28
2023-03-11T18:30:56.223Z,93762.28
2023-03-11T18:33:24.791Z,93775.84
2023-03-11T18:35:51.789Z,93781.72
2023-03-11T18:38:19.711Z,93783.47
2023-03-11T18:40:46.825Z,93769.41
2023-03-11T18:43:14.725Z,93789.91
2023-03-11T18:45:41.691Z,93780.78
2023-03-11T18:48:08.613Z,93768.59
2023-03-11T18:50:35.551Z,93769.88
2023-03-11T18:53:02.527Z,93797.38
2023-03-11T18:55:29.459Z,93792.56
2023-03-11T18:57:56.321Z,93778.28
2023-03-11T19:00:23.716Z,93774.25
2023-03-11T19:02:52.422Z,93791.50
2023-03-11T19:05:21.215Z,93792.75
2023-03-11T19:07:48.115Z,93791.28
2023-03-11T19:10:17.961Z,93790.19
2023-03-11T19:12:45.354Z,93815.19
2023-03-11T19:15:12.982Z,93812.00
2023-03-11T19:17:40.075Z,93802.63
2023-03-11T19:20:08.821Z,93819.78
2023-03-11T19:22:36.675Z,93811.16
2023-03-11T19:25:04.692Z,93819.22
2023-03-11T19:27:32.108Z,93822.69
2023-03-11T19:29:59.448Z,93815.25
2023-03-11T19:32:26.356Z,93802.34
2023-03-11T19:34:53.413Z,93832.41
2023-03-11T19:37:20.539Z,93834.06
2023-03-11T19:39:47.473Z,93843.22
2023-03-11T19:42:14.523Z,93846.66
2023-03-11T19:44:41.779Z,93849.13
2023-03-11T19:47:09.123Z,93855.78
2023-03-11T19:49:36.018Z,93855.16
2023-03-11T19:52:03.136Z,93869.97
2023-03-11T19:54:30.085Z,93868.53
2023-03-11T19:56:57.084Z,93864.28
2023-03-11T19:59:24.120Z,93875.59
2023-03-11T20:01:51.322Z,93854.28
2023-03-11T20:04:18.318Z,93894.22
2023-03-11T20:06:46.037Z,93879.13
2023-03-11T20:09:15.535Z,93895.88
2023-03-11T20:11:42.674Z,93909.59
2023-03-11T20:14:11.160Z,93920.06
2023-03-11T20:16:38.584Z,93925.78
2023-03-11T20:19:06.363Z,93919.59
2023-03-11T20:21:39.024Z,93936.91
2023-03-11T20:24:06.912Z,93871.22
2023-03-11T20:26:34.199Z,93898.16
2023-03-11T20:29:01.166Z,93937.06
2023-03-11T20:31:30.656Z,93947.56
2023-03-11T20:33:58.638Z,93954.22
2023-03-11T20:36:28.376Z,93940.91
2023-03-11T20:38:56.145Z,93945.47
2023-03-11T20:41:24.926Z,93961.22
2023-03-11T20:43:53.341Z,93915.28
2023-03-11T20:46:20.517Z,93962.53
2023-03-11T20:48:48.016Z,93944.41
2023-03-11T20:51:20.413Z,93957.97
2023-03-11T20:53:49.052Z,93962.66
2023-03-11T20:56:19.917Z,93957.91
2023-03-11T20:58:48.778Z,93952.38
2023-03-11T21:01:28.633Z,93963.69
2023-03-11T21:03:58.601Z,93941.28
2023-03-11T21:06:31.627Z,93953.69
2023-03-11T21:09:00.851Z,93957.00
2023-03-11T21:11:28.466Z,93959.78
2023-03-11T21:13:55.648Z,93954.41
2023-03-11T21:16:23.783Z,93953.31
2023-03-11T21:18:50.718Z,93955.38
2023-03-11T21:21:18.903Z,93952.50
2023-03-11T21:23:46.389Z,93975.56
2023-03-11T21:26:15.339Z,93970.19
2023-03-11T21:28:46.740Z,93975.81
2023-03-11T21:31:23.146Z,93968.47
2023-03-11T21:33:55.121Z,93989.03
2023-03-11T21:36:22.309Z,93976.84
2023-03-11T21:38:50.353Z,93983.25
2023-03-11T21:41:18.531Z,93989.34
2023-03-11T21:43:46.466Z,93989.75
2023-03-11T21:46:16.974Z,93993.66
2023-03-11T21:48:44.294Z,93978.47
2023-03-11T21:51:11.706Z,93987.78
2023-03-11T21:53:38.817Z,93990.78
2023-03-11T21:56:06.357Z,94003.19
2023-03-11T21:58:33.959Z,94011.69
2023-03-11T22:01:01.769Z,93999.50
2023-03-11T22:03:29.272Z,94009.38
2023-03-11T22:06:00.826Z,94010.19
2023-03-11T22:08:28.791Z,93998.59
2023-03-11T22:10:56.133Z,94000.66
2023-03-11T22:13:23.964Z,94015.03
2023-03-11T22:15:51.149Z,94004.78
2023-03-11T22:18:18.274Z,94008.81
2023-03-11T22:20:45.404Z,94010.41
2023-03-11T22:23:12.427Z,94023.41
2023-03-11T22:25:39.427Z,94020.19
2023-03-11T22:28:06.488Z,94029.34
2023-03-11T22:30:34.564Z,94035.88
2023-03-11T22:33:01.545Z,94041.06
2023-03-11T22:35:28.577Z,94051.72
2023-03-11T22:37:55.499Z,94048.97
2023-03-11T22:40:22.461Z,94034.66
2023-03-11T22:42:49.506Z,94043.03
2023-03-11T22:45:16.558Z,94070.81
2023-03-11T22:47:43.557Z,94067.06
2023-03-11T22:50:10.973Z,94069.09
2023-03-11T22:52:38.074Z,94082.06
2023-03-11T22:55:05.369Z,94084.22
2023-03-11T22:57:38.632Z,94062.59
2023-03-11T23:00:17.120Z,94027.13
2023-03-11T23:02:45.603Z,94072.06
2023-03-11T23:05:13.772Z,94098.53
2023-03-11T23:07:41.997Z,94100.16
2023-03-11T23:10:12.169Z,94094.75
2023-03-11T23:12:40.956Z,94096.81
2023-03-11T23:15:11.955Z,94089.72
2023-03-11T23:17:39.255Z,94080.56
2023-03-11T23:20:08.222Z,94083.56
2023-03-11T23:22:36.077Z,94087.69
2023-03-11T23:25:06.298Z,94090.91
2023-03-11T23:27:33.409Z,94064.22
2023-03-11T23:30:00.310Z,94071.34
2023-03-11T23:32:27.417Z,94094.63
2023-03-11T23:34:54.470Z,94065.66
2023-03-11T23:37:21.419Z,94081.38
2023-03-11T23:39:48.504Z,94095.97
2023-03-11T23:42:25.325Z,94089.94
2023-03-11T23:44:53.920Z,94092.44
2023-03-11T23:47:21.125Z,94099.47
2023-03-11T23:49:48.134Z,94099.91
2023-03-11T23:52:15.104Z,94107.88
2023-03-11T23:54:42.234Z,94103.63
2023-03-11T23:57:09.276Z,94086.06
2023-03-11T23:59:36.288Z,94081.25
